Time;durP1;ratioP1;P1;durP2;ratioP2;P2;SDS_P1;SDS_P2;PMS_P1;PMS_P2;Temp;Humidity;BMP_temperature;BMP_pressure;BME280_temperature;BME280_humidity;BME280_pressure;Samples;Min_cycle;Max_cycle;Signal;HPM_P1;HPM_P2
2024/01/15 00:00:13;;;;;;;;;;;12.40;67.60;;;;;;6276886;22;19903;-82
2024/01/15 00:02:39;;;;;;;;;;;12.30;66.90;;;;;;6276933;22;19907;-81
2024/01/15 00:05:04;;;;;;;;;;;12.30;67.40;;;;;;6276225;22;19922;-81
2024/01/15 00:07:30;;;;;;;;;;;12.40;67.20;;;;;;6276277;22;20314;-81
2024/01/15 00:09:55;;;;;;;;;;;12.40;67.30;;;;;;6276222;22;20311;-82
2024/01/15 00:12:20;;;;;;;;;;;12.30;67.20;;;;;;6276138;22;19911;-80
2024/01/15 00:14:46;;;;;;;;;;;12.40;67.20;;;;;;6276124;22;20347;-81
2024/01/15 00:17:12;;;;;;;;;;;12.40;67.40;;;;;;6276206;22;19904;-81
2024/01/15 00:19:38;;;;;;;;;;;12.30;67.10;;;;;;6276223;22;19903;-81
2024/01/15 00:22:03;;;;;;;;;;;12.40;67.20;;;;;;6276203;22;19926;-81
2024/01/15 00:24:29;;;;;;;;;;;12.30;66.30;;;;;;6276116;22;20002;-81
2024/01/15 00:26:55;;;;;;;;;;;12.30;66.60;;;;;;6276766;22;19957;-82
2024/01/15 00:29:21;;;;;;;;;;;12.40;67.00;;;;;;6249204;22;20477;-82
2024/01/15 00:31:46;;;;;;;;;;;12.40;67.00;;;;;;6275807;22;19910;-81
2024/01/15 00:34:12;;;;;;;;;;;12.40;67.00;;;;;;6276037;22;19907;-82
2024/01/15 00:36:37;;;;;;;;;;;12.40;67.00;;;;;;6275942;22;19904;-81
2024/01/15 00:39:04;;;;;;;;;;;12.40;67.00;;;;;;6275916;22;19908;-82
2024/01/15 00:41:30;;;;;;;;;;;12.40;66.80;;;;;;6275936;22;19910;-82
2024/01/15 00:43:56;;;;;;;;;;;12.40;67.30;;;;;;6275893;22;20274;-82
2024/01/15 00:46:21;;;;;;;;;;;12.30;66.90;;;;;;6276603;22;19903;-82
2024/01/15 00:48:47;;;;;;;;;;;12.40;66.90;;;;;;6275892;22;19982;-83
2024/01/15 00:51:12;;;;;;;;;;;12.40;66.90;;;;;;6275991;22;19942;-83
2024/01/15 00:53:38;;;;;;;;;;;12.40;67.30;;;;;;6275866;22;20400;-84
2024/01/15 00:56:04;;;;;;;;;;;12.40;67.30;;;;;;6276434;22;19957;-83
2024/01/15 00:58:29;;;;;;;;;;;12.40;67.10;;;;;;6248866;22;20290;-83
2024/01/15 01:00:55;;;;;;;;;;;12.40;67.60;;;;;;6275853;22;19903;-82
2024/01/15 01:03:21;;;;;;;;;;;12.20;67.10;;;;;;6275635;22;19945;-82
2024/01/15 01:05:48;;;;;;;;;;;12.40;67.90;;;;;;6275962;22;19903;-80
2024/01/15 01:08:13;;;;;;;;;;;12.40;67.10;;;;;;6275856;22;19938;-81
2024/01/15 01:10:39;;;;;;;;;;;12.40;67.50;;;;;;6275971;22;20314;-81
2024/01/15 01:13:05;;;;;;;;;;;12.40;67.40;;;;;;6276244;22;19965;-81
2024/01/15 01:15:31;;;;;;;;;;;12.40;67.40;;;;;;6276416;22;19904;-80
2024/01/15 01:17:57;;;;;;;;;;;12.40;67.30;;;;;;6276361;22;19910;-81
2024/01/15 01:20:23;;;;;;;;;;;12.40;67.40;;;;;;6276322;22;20245;-80
2024/01/15 01:22:49;;;;;;;;;;;12.30;67.30;;;;;;6275668;22;20330;-81
2024/01/15 01:25:14;;;;;;;;;;;12.30;67.60;;;;;;6276294;22;19929;-80
2024/01/15 01:27:40;;;;;;;;;;;12.50;67.10;;;;;;6275745;22;19914;-81
2024/01/15 01:30:05;;;;;;;;;;;12.50;67.40;;;;;;6275504;22;19941;-80
2024/01/15 01:32:31;;;;;;;;;;;12.40;65.10;;;;;;6275548;22;19918;-80
2024/01/15 01:34:56;;;;;;;;;;;12.50;67.40;;;;;;6276416;22;19926;-81
2024/01/15 01:37:22;;;;;;;;;;;12.40;67.20;;;;;;6275625;22;19930;-81
2024/01/15 01:39:47;;;;;;;;;;;12.40;67.30;;;;;;6275715;22;19982;-81
2024/01/15 01:42:13;;;;;;;;;;;12.40;67.30;;;;;;6275656;22;19925;-81
2024/01/15 01:44:38;;;;;;;;;;;12.30;67.20;;;;;;6275703;22;19903;-81
2024/01/15 01:47:05;;;;;;;;;;;12.40;67.20;;;;;;6275494;22;20073;-81
2024/01/15 01:49:31;;;;;;;;;;;12.40;67.50;;;;;;6275692;22;19956;-81
2024/01/15 01:51:57;;;;;;;;;;;12.30;66.80;;;;;;6276057;22;19929;-81
2024/01/15 01:54:23;;;;;;;;;;;12.40;67.60;;;;;;6275630;22;19961;-81
2024/01/15 01:56:50;;;;;;;;;;;12.40;67.50;;;;;;6275619;22;20319;-81
2024/01/15 01:59:16;;;;;;;;;;;12.30;67.60;;;;;;6275573;22;19966;-81
2024/01/15 02:01:42;;;;;;;;;;;12.30;66.70;;;;;;6276511;22;19903;-81
2024/01/15 02:04:08;;;;;;;;;;;12.40;67.40;;;;;;6277331;22;19922;-81
2024/01/15 02:06:34;;;;;;;;;;;12.30;67.30;;;;;;6277413;22;19903;-71
2024/01/15 02:08:59;;;;;;;;;;;12.30;67.10;;;;;;6277375;22;19910;-71
2024/01/15 02:11:25;;;;;;;;;;;12.30;67.20;;;;;;6277218;22;19994;-70
2024/01/15 02:13:50;;;;;;;;;;;12.30;67.20;;;;;;6277265;22;19912;-70
2024/01/15 02:16:16;;;;;;;;;;;12.40;67.10;;;;;;6277278;22;19903;-71
2024/01/15 02:18:46;;;;;;;;;;;12.30;67.00;;;;;;6277943;22;19945;-71
2024/01/15 02:21:11;;;;;;;;;;;12.40;62.00;;;;;;6277753;22;19973;-71
2024/01/15 02:23:37;;;;;;;;;;;12.40;67.00;;;;;;6277276;22;20323;-71
2024/01/15 02:26:04;;;;;;;;;;;12.30;66.70;;;;;;6277205;22;19907;-70
2024/01/15 02:28:30;;;;;;;;;;;12.30;66.40;;;;;;6277136;22;19909;-71
2024/01/15 02:30:55;;;;;;;;;;;12.30;66.40;;;;;;6277191;22;19935;-71
2024/01/15 02:33:21;;;;;;;;;;;12.30;66.60;;;;;;6277693;22;19926;-71
2024/01/15 02:35:46;;;;;;;;;;;12.30;66.70;;;;;;6277065;22;20274;-71
2024/01/15 02:38:12;;;;;;;;;;;12.30;66.60;;;;;;6276962;22;19904;-71
2024/01/15 02:40:38;;;;;;;;;;;12.30;66.20;;;;;;6277007;22;19903;-71
2024/01/15 02:43:04;;;;;;;;;;;12.40;66.70;;;;;;6277620;22;19912;-70
2024/01/15 02:45:30;;;;;;;;;;;12.30;66.80;;;;;;6277509;22;20319;-71
2024/01/15 02:47:56;;;;;;;;;;;12.30;66.70;;;;;;6277536;22;19926;-71
2024/01/15 02:50:21;;;;;;;;;;;12.30;66.80;;;;;;6278107;22;19904;-71
2024/01/15 02:52:47;;;;;;;;;;;12.40;66.90;;;;;;6277018;22;19911;-70
2024/01/15 02:55:13;;;;;;;;;;;12.30;66.80;;;;;;6277521;22;19935;-71
2024/01/15 02:57:39;;;;;;;;;;;12.40;66.90;;;;;;6277495;22;19910;-70
2024/01/15 03:00:07;;;;;;;;;;;12.40;66.80;;;;;;6277266;22;19934;-71
2024/01/15 03:02:35;;;;;;;;;;;12.30;66.20;;;;;;6277376;22;19911;-71
2024/01/15 03:05:01;;;;;;;;;;;12.30;66.80;;;;;;6276793;22;19922;-71
2024/01/15 03:07:28;;;;;;;;;;;12.30;66.70;;;;;;6277295;22;19903;-71
2024/01/15 03:09:54;;;;;;;;;;;12.30;66.80;;;;;;6277387;22;20233;-70
2024/01/15 03:12:20;;;;;;;;;;;12.30;66.60;;;;;;6276319;22;19946;-70
2024/01/15 03:14:46;;;;;;;;;;;12.20;66.50;;;;;;6276922;22;19903;-71
2024/01/15 03:17:12;;;;;;;;;;;12.30;66.20;;;;;;6277836;22;19903;-80
2024/01/15 03:19:38;;;;;;;;;;;12.30;66.60;;;;;;6277385;22;19926;-80
2024/01/15 03:22:04;;;;;;;;;;;12.30;66.50;;;;;;6277304;22;19910;-81
2024/01/15 03:24:31;;;;;;;;;;;12.30;66.50;;;;;;6277502;22;19990;-81
2024/01/15 03:26:57;;;;;;;;;;;12.30;66.50;;;;;;6276834;22;19911;-80
2024/01/15 03:29:23;;;;;;;;;;;12.20;66.40;;;;;;6276842;22;19907;-80
2024/01/15 03:31:49;;;;;;;;;;;12.20;66.30;;;;;;6277299;22;19903;-80
2024/01/15 03:34:15;;;;;;;;;;;12.30;66.20;;;;;;6250161;22;19911;-80
2024/01/15 03:36:41;;;;;;;;;;;12.20;66.50;;;;;;6276994;22;20219;-80
2024/01/15 03:39:07;;;;;;;;;;;12.20;66.10;;;;;;6277165;22;20242;-80
2024/01/15 03:41:33;;;;;;;;;;;12.20;66.50;;;;;;6277060;22;19907;-80
2024/01/15 03:43:59;;;;;;;;;;;12.20;66.30;;;;;;6276860;22;20281;-80
2024/01/15 03:46:25;;;;;;;;;;;12.20;66.40;;;;;;6277768;22;19903;-80
2024/01/15 03:48:51;;;;;;;;;;;12.20;66.50;;;;;;6277210;22;20342;-80
2024/01/15 03:51:20;;;;;;;;;;;12.20;66.20;;;;;;6276647;22;19903;-80
2024/01/15 03:53:45;;;;;;;;;;;12.20;61.60;;;;;;6276394;22;19919;-80
2024/01/15 03:56:11;;;;;;;;;;;12.20;66.20;;;;;;6277165;22;19904;-80
2024/01/15 03:58:37;;;;;;;;;;;12.20;65.90;;;;;;6277151;22;19903;-80
2024/01/15 04:01:03;;;;;;;;;;;12.20;66.00;;;;;;6276907;22;19978;-80
2024/01/15 04:03:29;;;;;;;;;;;12.20;65.60;;;;;;6276252;22;20346;-81
2024/01/15 04:05:55;;;;;;;;;;;12.20;66.10;;;;;;6286633;22;19903;-80
2024/01/15 04:08:21;;;;;;;;;;;12.50;66.10;;;;;;6276557;22;19903;-80
2024/01/15 04:10:47;;;;;;;;;;;12.20;66.30;;;;;;6276346;22;19931;-80
2024/01/15 04:13:13;;;;;;;;;;;12.10;66.00;;;;;;6276818;22;19923;-80
2024/01/15 04:15:39;;;;;;;;;;;12.20;66.30;;;;;;6277413;22;19911;-81
2024/01/15 04:18:05;;;;;;;;;;;12.10;66.30;;;;;;6276866;22;20008;-80
2024/01/15 04:20:31;;;;;;;;;;;12.20;66.40;;;;;;6276689;22;19907;-81
2024/01/15 04:22:57;;;;;;;;;;;12.10;66.70;;;;;;6276750;22;20278;-80
2024/01/15 04:25:22;;;;;;;;;;;12.10;66.60;;;;;;6276846;22;20444;-80
2024/01/15 04:27:48;;;;;;;;;;;12.20;66.70;;;;;;6276827;22;19903;-80
2024/01/15 04:30:14;;;;;;;;;;;12.20;66.80;;;;;;6276312;22;19903;-80
2024/01/15 04:32:40;;;;;;;;;;;12.20;66.40;;;;;;6276627;22;19922;-80
2024/01/15 04:35:07;;;;;;;;;;;12.10;66.80;;;;;;6276659;22;19903;-80
2024/01/15 04:37:32;;;;;;;;;;;12.10;65.80;;;;;;6276565;22;20005;-81
2024/01/15 04:39:58;;;;;;;;;;;12.10;67.60;;;;;;6276238;22;19903;-82
2024/01/15 04:42:24;;;;;;;;;;;12.10;66.90;;;;;;6277237;22;19903;-71
2024/01/15 04:44:51;;;;;;;;;;;12.20;67.00;;;;;;6276438;22;20361;-71
2024/01/15 04:47:17;;;;;;;;;;;12.10;66.90;;;;;;6276319;22;20267;-71
2024/01/15 04:49:43;;;;;;;;;;;12.20;67.20;;;;;;6276050;22;20343;-71
2024/01/15 04:52:12;;;;;;;;;;;12.10;66.40;;;;;;6275968;22;19903;-71
2024/01/15 04:54:54;;;;;;;;;;;12.20;66.70;;;;;;6273403;22;20000;-71
2024/01/15 04:57:20;;;;;;;;;;;12.10;66.90;;;;;;6275988;22;20314;-71
2024/01/15 04:59:46;;;;;;;;;;;12.20;66.90;;;;;;6276372;22;19904;-71
2024/01/15 05:08:17;;;;;;;;;;;12.10;62.40;;;;;;6286341;22;19910;-71
2024/01/15 05:10:43;;;;;;;;;;;12.30;67.40;;;;;;6275837;22;19986;-71
2024/01/15 05:13:08;;;;;;;;;;;12.30;67.30;;;;;;6275795;22;19939;-71
2024/01/15 05:15:34;;;;;;;;;;;12.50;67.20;;;;;;6275811;22;20098;-71
2024/01/15 05:17:59;;;;;;;;;;;12.30;67.20;;;;;;6275885;22;19926;-71
2024/01/15 05:20:25;;;;;;;;;;;12.20;67.00;;;;;;6275881;22;19988;-71
2024/01/15 05:22:50;;;;;;;;;;;12.20;67.80;;;;;;6275737;22;19911;-71
2024/01/15 05:25:16;;;;;;;;;;;12.40;67.00;;;;;;6275745;22;19938;-71
2024/01/15 05:27:41;;;;;;;;;;;12.30;67.00;;;;;;6276430;22;19903;-71
2024/01/15 05:30:07;;;;;;;;;;;12.30;67.00;;;;;;6275878;22;19929;-71
2024/01/15 05:32:34;;;;;;;;;;;12.20;64.50;;;;;;6275240;22;20334;-71
2024/01/15 05:34:59;;;;;;;;;;;12.20;66.90;;;;;;6276893;22;20011;-72
2024/01/15 05:37:25;;;;;;;;;;;12.30;66.90;;;;;;6277430;22;19904;-71
2024/01/15 05:39:51;;;;;;;;;;;12.20;66.60;;;;;;6277716;22;19935;-71
2024/01/15 05:42:16;;;;;;;;;;;12.20;66.80;;;;;;6277728;22;19911;-71
2024/01/15 05:44:42;;;;;;;;;;;12.50;67.20;;;;;;6277697;22;19903;-71
2024/01/15 05:47:07;;;;;;;;;;;12.20;66.80;;;;;;6277784;22;20234;-71
2024/01/15 05:49:33;;;;;;;;;;;12.40;66.90;;;;;;6278288;22;19957;-71
2024/01/15 05:51:58;;;;;;;;;;;12.60;66.70;;;;;;6277607;22;19942;-71
2024/01/15 05:54:24;;;;;;;;;;;12.20;66.90;;;;;;6277671;22;19982;-71
2024/01/15 05:56:49;;;;;;;;;;;12.30;66.80;;;;;;6277521;22;20322;-71
2024/01/15 05:59:15;;;;;;;;;;;12.20;66.80;;;;;;6277512;22;20333;-71
2024/01/15 06:01:40;;;;;;;;;;;12.20;66.30;;;;;;6277238;22;19945;-71
2024/01/15 06:04:06;;;;;;;;;;;12.30;66.50;;;;;;6278033;22;19981;-71
2024/01/15 06:06:32;;;;;;;;;;;12.30;66.40;;;;;;6277374;22;19929;-71
2024/01/15 06:08:59;;;;;;;;;;;12.30;66.50;;;;;;6277271;22;19903;-71
2024/01/15 06:11:29;;;;;;;;;;;12.20;66.30;;;;;;6277432;22;20268;-71
2024/01/15 06:13:54;;;;;;;;;;;12.30;66.40;;;;;;6250205;22;19962;-71
2024/01/15 06:16:21;;;;;;;;;;;12.20;66.50;;;;;;6277451;22;19907;-71
2024/01/15 06:18:47;;;;;;;;;;;12.20;66.30;;;;;;6277347;22;19931;-71
2024/01/15 06:21:14;;;;;;;;;;;12.20;66.40;;;;;;6277325;22;19910;-85
2024/01/15 06:23:39;;;;;;;;;;;12.40;66.60;;;;;;6250361;22;19919;-70
2024/01/15 06:26:05;;;;;;;;;;;12.20;66.30;;;;;;6277764;22;20230;-71
2024/01/15 06:28:30;;;;;;;;;;;12.00;66.20;;;;;;6277293;22;19907;-72
2024/01/15 06:30:56;;;;;;;;;;;12.20;66.40;;;;;;6277081;22;20318;-72
2024/01/15 06:33:22;;;;;;;;;;;12.20;66.20;;;;;;6277666;22;19911;-74
2024/01/15 06:35:48;;;;;;;;;;;12.10;66.20;;;;;;6277092;22;19974;-71
2024/01/15 06:38:13;;;;;;;;;;;12.20;66.00;;;;;;6277780;22;20259;-72
2024/01/15 06:40:41;;;;;;;;;;;12.10;65.90;;;;;;6276554;22;20326;-72
2024/01/15 06:43:07;;;;;;;;;;;12.10;65.90;;;;;;6281182;22;20029;-72
2024/01/15 06:45:32;;;;;;;;;;;12.10;66.10;;;;;;6277368;22;19903;-78
2024/01/15 06:47:58;;;;;;;;;;;12.10;66.60;;;;;;6277731;22;19910;-78
2024/01/15 06:50:23;;;;;;;;;;;12.20;66.20;;;;;;6277604;22;19909;-77
2024/01/15 06:52:49;;;;;;;;;;;12.10;66.10;;;;;;6278141;22;20223;-79
2024/01/15 06:55:14;;;;;;;;;;;12.10;66.10;;;;;;6278797;22;19903;-78
2024/01/15 06:57:40;;;;;;;;;;;12.10;66.40;;;;;;6276977;22;20340;-82
2024/01/15 07:00:07;;;;;;;;;;;12.00;66.10;;;;;;6276872;22;19903;-83
2024/01/15 07:02:33;;;;;;;;;;;12.10;65.90;;;;;;6277388;22;19921;-82
2024/01/15 07:04:58;;;;;;;;;;;12.00;66.00;;;;;;6276945;22;19940;-82
2024/01/15 07:07:24;;;;;;;;;;;12.10;66.10;;;;;;6276974;22;19904;-76
2024/01/15 07:09:52;;;;;;;;;;;12.00;66.00;;;;;;6277224;22;19904;-78
2024/01/15 07:12:17;;;;;;;;;;;12.00;66.20;;;;;;6276943;22;19903;-77
2024/01/15 07:14:43;;;;;;;;;;;12.00;66.40;;;;;;6276932;22;19903;-77
2024/01/15 07:17:08;;;;;;;;;;;12.00;66.60;;;;;;6276847;22;19910;-78
2024/01/15 07:19:34;;;;;;;;;;;12.00;66.40;;;;;;6276892;22;20340;-77
2024/01/15 07:22:00;;;;;;;;;;;12.00;66.60;;;;;;6276973;22;19949;-77
2024/01/15 07:24:25;;;;;;;;;;;12.10;66.40;;;;;;6276962;22;19903;-79
2024/01/15 07:26:51;;;;;;;;;;;12.00;66.50;;;;;;6276823;22;20337;-80
2024/01/15 07:29:16;;;;;;;;;;;12.00;65.80;;;;;;6277325;22;19903;-78
2024/01/15 07:31:47;;;;;;;;;;;12.10;66.40;;;;;;6276777;22;19903;-75
2024/01/15 07:34:12;;;;;;;;;;;12.00;66.40;;;;;;6276675;22;19993;-79
2024/01/15 07:36:38;;;;;;;;;;;12.10;66.30;;;;;;6277100;22;19938;-78
2024/01/15 07:39:04;;;;;;;;;;;12.10;65.60;;;;;;6276792;22;19907;-81
2024/01/15 07:41:29;;;;;;;;;;;12.10;66.10;;;;;;6277596;22;19911;-78
2024/01/15 07:43:55;;;;;;;;;;;12.00;66.10;;;;;;6276698;22;20003;-79
2024/01/15 07:46:20;;;;;;;;;;;12.10;66.00;;;;;;6276693;22;19908;-78
2024/01/15 07:48:46;;;;;;;;;;;12.30;66.00;;;;;;6277405;22;19903;-76
2024/01/15 07:51:12;;;;;;;;;;;12.50;66.20;;;;;;6276784;22;19950;-77
2024/01/15 07:53:38;;;;;;;;;;;12.10;66.00;;;;;;6276831;22;19915;-80
2024/01/15 07:56:03;;;;;;;;;;;12.00;65.90;;;;;;6276595;22;19907;-77
2024/01/15 07:58:29;;;;;;;;;;;12.00;65.80;;;;;;6277280;22;19903;-77
2024/01/15 08:00:54;;;;;;;;;;;12.10;66.20;;;;;;6249404;22;19903;-77
2024/01/15 08:03:20;;;;;;;;;;;12.00;66.00;;;;;;6276070;22;19919;-77
2024/01/15 08:05:46;;;;;;;;;;;12.10;66.40;;;;;;6276586;22;19957;-78
2024/01/15 08:08:12;;;;;;;;;;;12.00;66.30;;;;;;6276403;22;19903;-78
2024/01/15 08:10:37;;;;;;;;;;;12.00;66.20;;;;;;6276427;22;19903;-69
2024/01/15 08:13:03;;;;;;;;;;;12.10;66.30;;;;;;6275590;22;19998;-69
2024/01/15 08:15:28;;;;;;;;;;;12.10;65.80;;;;;;6276248;22;20322;-69
2024/01/15 08:17:54;;;;;;;;;;;12.10;66.20;;;;;;6276190;22;19908;-69
2024/01/15 08:20:19;;;;;;;;;;;12.10;66.20;;;;;;6276172;22;19958;-70
2024/01/15 08:22:45;;;;;;;;;;;12.10;66.30;;;;;;6276198;22;20262;-70
2024/01/15 08:25:11;;;;;;;;;;;12.10;66.20;;;;;;6276022;22;19908;-71
2024/01/15 08:27:36;;;;;;;;;;;12.10;66.30;;;;;;6276652;22;19903;-71
2024/01/15 08:30:04;;;;;;;;;;;12.10;66.40;;;;;;6276193;22;20024;-71
2024/01/15 08:32:29;;;;;;;;;;;12.10;65.90;;;;;;6275992;22;19918;-70
2024/01/15 08:34:55;;;;;;;;;;;12.10;66.80;;;;;;6276177;22;19903;-70
2024/01/15 08:37:20;;;;;;;;;;;12.10;66.70;;;;;;6276025;22;19914;-70
2024/01/15 08:39:46;;;;;;;;;;;12.10;66.80;;;;;;6276247;22;19904;-78
2024/01/15 08:42:11;;;;;;;;;;;12.20;66.80;;;;;;6276144;22;19910;-78
2024/01/15 08:44:39;;;;;;;;;;;12.10;66.80;;;;;;6276292;22;19903;-77
2024/01/15 08:47:04;;;;;;;;;;;12.10;66.80;;;;;;6276307;22;20242;-78
2024/01/15 08:49:30;;;;;;;;;;;12.20;66.90;;;;;;6276317;22;19907;-77
2024/01/15 08:51:55;;;;;;;;;;;12.10;67.20;;;;;;6276384;22;19910;-78
2024/01/15 08:54:21;;;;;;;;;;;12.20;66.60;;;;;;6276673;22;19911;-78
2024/01/15 08:56:46;;;;;;;;;;;12.10;66.90;;;;;;6276204;22;19904;-77
2024/01/15 08:59:12;;;;;;;;;;;12.20;66.80;;;;;;6276075;22;19910;-78
2024/01/15 09:01:38;;;;;;;;;;;12.20;66.60;;;;;;6275787;22;19903;-77
2024/01/15 09:04:03;;;;;;;;;;;12.20;67.00;;;;;;6276176;22;19942;-78
2024/01/15 09:06:29;;;;;;;;;;;12.20;67.00;;;;;;6276508;22;19956;-78
2024/01/15 09:08:54;;;;;;;;;;;12.30;67.20;;;;;;6276254;22;19934;-78
2024/01/15 09:11:20;;;;;;;;;;;12.20;67.00;;;;;;6275683;22;19985;-77
2024/01/15 09:13:45;;;;;;;;;;;12.20;66.80;;;;;;6275833;22;19998;-79
2024/01/15 09:16:11;;;;;;;;;;;12.20;66.90;;;;;;6276151;22;20374;-78
2024/01/15 09:18:37;;;;;;;;;;;12.30;67.30;;;;;;6276728;22;20368;-77
2024/01/15 09:21:03;;;;;;;;;;;12.30;67.00;;;;;;6276663;22;19903;-75
2024/01/15 09:23:29;;;;;;;;;;;12.40;66.30;;;;;;6276290;22;19903;-76
2024/01/15 09:25:55;;;;;;;;;;;12.30;67.10;;;;;;6276665;22;19931;-77
2024/01/15 09:28:21;;;;;;;;;;;12.40;66.80;;;;;;6280817;22;19930;-73
2024/01/15 09:30:47;;;;;;;;;;;12.50;66.60;;;;;;6276028;22;19953;-75
2024/01/15 09:33:12;;;;;;;;;;;12.40;66.50;;;;;;6275627;22;19958;-76
2024/01/15 09:35:38;;;;;;;;;;;12.40;66.80;;;;;;6275721;22;19903;-76
2024/01/15 09:38:03;;;;;;;;;;;12.50;66.70;;;;;;6275280;22;19934;-75
2024/01/15 09:40:33;;;;;;;;;;;12.40;66.20;;;;;;6276436;22;19903;-77
2024/01/15 09:42:59;;;;;;;;;;;12.50;66.80;;;;;;6275334;22;19903;-80
2024/01/15 09:45:25;;;;;;;;;;;12.50;66.70;;;;;;6276461;22;19904;-78
2024/01/15 09:47:51;;;;;;;;;;;12.40;66.50;;;;;;6275815;22;19911;-78
2024/01/15 09:50:17;;;;;;;;;;;12.40;66.50;;;;;;6276118;22;19903;-77
2024/01/15 09:52:44;;;;;;;;;;;12.50;66.20;;;;;;6276536;22;20321;-77
2024/01/15 09:55:11;;;;;;;;;;;12.40;66.30;;;;;;6276418;22;19903;-79
2024/01/15 09:57:39;;;;;;;;;;;12.50;66.50;;;;;;6276122;22;19907;-79
2024/01/15 10:00:06;;;;;;;;;;;12.50;67.30;;;;;;6276588;22;19982;-78
2024/01/15 10:02:32;;;;;;;;;;;12.50;66.40;;;;;;6275779;22;19915;-79
2024/01/15 10:04:58;;;;;;;;;;;12.50;67.00;;;;;;6276300;22;20242;-79
2024/01/15 10:07:25;;;;;;;;;;;12.60;67.10;;;;;;6274721;22;19903;-79
2024/01/15 10:09:51;;;;;;;;;;;12.50;67.10;;;;;;6275627;22;19939;-79
2024/01/15 10:12:17;;;;;;;;;;;12.50;67.00;;;;;;6275806;22;19903;-78
2024/01/15 10:14:43;;;;;;;;;;;12.60;66.80;;;;;;6276370;22;20331;-78
2024/01/15 10:17:15;;;;;;;;;;;12.60;66.70;;;;;;6275893;22;19903;-73
2024/01/15 10:19:41;;;;;;;;;;;12.60;61.90;;;;;;6275579;22;19907;-78
2024/01/15 10:22:07;;;;;;;;;;;12.50;67.00;;;;;;6276179;22;19910;-80
2024/01/15 10:24:34;;;;;;;;;;;12.50;67.10;;;;;;6277494;22;19913;-81
2024/01/15 10:27:06;;;;;;;;;;;12.50;67.20;;;;;;6277449;22;20242;-75
2024/01/15 10:29:32;;;;;;;;;;;12.60;62.00;;;;;;6277904;22;19903;-80
2024/01/15 10:31:57;;;;;;;;;;;12.60;67.20;;;;;;6277493;22;20007;-80
2024/01/15 10:34:23;;;;;;;;;;;12.50;67.20;;;;;;6277436;22;19930;-78
2024/01/15 10:36:55;;;;;;;;;;;12.60;67.30;;;;;;6277398;22;19903;-81
2024/01/15 10:39:23;;;;;;;;;;;12.70;67.40;;;;;;6287752;22;20068;-81
2024/01/15 10:41:50;;;;;;;;;;;12.50;62.50;;;;;;6287783;22;20379;-81
2024/01/15 10:44:16;;;;;;;;;;;12.50;67.40;;;;;;6287666;22;20211;-81
2024/01/15 10:46:42;;;;;;;;;;;12.50;67.40;;;;;;6287542;22;19953;-81
2024/01/15 10:49:08;;;;;;;;;;;12.60;67.40;;;;;;6287550;22;19903;-81
2024/01/15 10:51:34;;;;;;;;;;;12.60;67.20;;;;;;6287461;22;19903;-81
2024/01/15 10:54:00;;;;;;;;;;;12.60;67.50;;;;;;6287359;22;19918;-82
2024/01/15 10:56:29;;;;;;;;;;;12.50;67.50;;;;;;6287836;22;19903;-82
2024/01/15 10:58:56;;;;;;;;;;;12.50;62.00;;;;;;6287432;22;19903;-82
2024/01/15 11:01:21;;;;;;;;;;;12.60;67.30;;;;;;6286818;22;19915;-82
2024/01/15 11:03:47;;;;;;;;;;;12.50;67.20;;;;;;6286942;22;20245;-82
2024/01/15 11:06:21;;;;;;;;;;;12.50;67.50;;;;;;6287311;22;19938;-82
2024/01/15 11:08:50;;;;;;;;;;;12.70;62.40;;;;;;6287442;22;19911;-82
2024/01/15 11:11:17;;;;;;;;;;;12.60;62.30;;;;;;6277338;22;19903;-81
2024/01/15 11:13:44;;;;;;;;;;;12.70;67.10;;;;;;6277172;22;19911;-80
2024/01/15 11:16:11;;;;;;;;;;;12.60;66.80;;;;;;6277564;22;19953;-80
2024/01/15 11:18:40;;;;;;;;;;;12.60;68.10;;;;;;6277572;22;19903;-74
2024/01/15 11:21:17;;;;;;;;;;;12.60;67.40;;;;;;6276925;22;20409;-76
2024/01/15 11:23:47;;;;;;;;;;;12.60;62.30;;;;;;6277387;22;19918;-78
2024/01/15 11:26:31;;;;;;;;;;;12.60;67.30;;;;;;6274630;22;19907;-78
2024/01/15 11:28:59;;;;;;;;;;;12.70;67.30;;;;;;6276905;22;19957;-76
2024/01/15 11:31:48;;;;;;;;;;;12.60;67.20;;;;;;6287164;22;20219;-76
2024/01/15 11:34:13;;;;;;;;;;;12.70;62.20;;;;;;6255843;22;19986;-77
2024/01/15 11:36:51;;;;;;;;;;;12.60;67.00;;;;;;6276870;22;19934;-76
2024/01/15 11:39:28;;;;;;;;;;;12.60;62.00;;;;;;6276832;22;19903;-72
2024/01/15 11:41:57;;;;;;;;;;;12.60;62.00;;;;;;6276643;22;19903;-74
2024/01/15 11:44:23;;;;;;;;;;;12.70;62.00;;;;;;6277043;22;19934;-71
2024/01/15 11:47:05;;;;;;;;;;;12.60;66.80;;;;;;6276690;22;19903;-74
2024/01/15 11:49:49;;;;;;;;;;;12.60;62.30;;;;;;6277206;22;20030;-81
2024/01/15 11:52:16;;;;;;;;;;;12.60;62.20;;;;;;6249010;22;19926;-73
2024/01/15 11:54:46;;;;;;;;;;;12.60;67.10;;;;;;6277489;22;19904;-73
2024/01/15 11:57:18;;;;;;;;;;;12.60;67.10;;;;;;6276514;22;19933;-74
2024/01/15 11:59:44;;;;;;;;;;;12.80;67.20;;;;;;6276522;22;19918;-75
2024/01/15 12:02:12;;;;;;;;;;;12.70;66.60;;;;;;6276009;22;20018;-75
2024/01/15 12:04:39;;;;;;;;;;;12.70;66.80;;;;;;6276564;22;19907;-75
2024/01/15 12:07:04;;;;;;;;;;;12.70;66.90;;;;;;6276468;22;19946;-76
2024/01/15 12:09:30;;;;;;;;;;;12.70;66.90;;;;;;6276445;22;19907;-75
2024/01/15 12:12:01;;;;;;;;;;;12.70;67.10;;;;;;6276394;22;19978;-75
2024/01/15 12:14:29;;;;;;;;;;;12.60;67.20;;;;;;6286793;22;19994;-75
2024/01/15 12:16:54;;;;;;;;;;;12.60;67.50;;;;;;6286537;22;19903;-75
2024/01/15 12:19:20;;;;;;;;;;;12.70;67.30;;;;;;6249228;22;19908;-75
2024/01/15 12:21:46;;;;;;;;;;;12.70;67.50;;;;;;6276002;22;20402;-75
2024/01/15 12:24:12;;;;;;;;;;;12.60;67.00;;;;;;6277349;22;19931;-75
2024/01/15 12:26:37;;;;;;;;;;;12.70;66.70;;;;;;6276266;22;19926;-75
2024/01/15 12:29:05;;;;;;;;;;;12.70;67.30;;;;;;6276195;22;20341;-75
2024/01/15 12:31:31;;;;;;;;;;;12.80;67.40;;;;;;6276631;22;19907;-75
2024/01/15 12:33:56;;;;;;;;;;;12.70;67.40;;;;;;6249170;22;20325;-75
2024/01/15 12:36:22;;;;;;;;;;;12.70;67.30;;;;;;6276084;22;19903;-75
2024/01/15 12:38:47;;;;;;;;;;;12.70;67.30;;;;;;6276913;22;19904;-73
2024/01/15 12:41:13;;;;;;;;;;;12.70;67.20;;;;;;6275512;22;20254;-73
2024/01/15 12:43:40;;;;;;;;;;;12.70;67.20;;;;;;6276176;22;19904;-74
2024/01/15 12:46:06;;;;;;;;;;;12.90;66.90;;;;;;6275980;22;19942;-74
2024/01/15 12:48:31;;;;;;;;;;;13.00;67.30;;;;;;6275934;22;19903;-73
2024/01/15 12:50:57;;;;;;;;;;;12.80;67.00;;;;;;6276625;22;20306;-74
2024/01/15 12:53:22;;;;;;;;;;;12.90;66.70;;;;;;6276535;22;19915;-74
2024/01/15 12:55:48;;;;;;;;;;;13.00;66.50;;;;;;6275966;22;20322;-74
2024/01/15 12:58:13;;;;;;;;;;;13.10;66.00;;;;;;6275841;22;19903;-74
2024/01/15 13:00:39;;;;;;;;;;;13.20;65.60;;;;;;6276553;22;19904;-74
2024/01/15 13:03:05;;;;;;;;;;;13.30;64.70;;;;;;6275715;22;19938;-74
2024/01/15 13:05:31;;;;;;;;;;;13.40;65.10;;;;;;6275893;22;19907;-74
2024/01/15 13:07:57;;;;;;;;;;;13.50;64.90;;;;;;6276022;22;19982;-74
2024/01/15 13:10:24;;;;;;;;;;;13.50;64.60;;;;;;6275815;22;19903;-73
2024/01/15 13:12:50;;;;;;;;;;;13.60;64.20;;;;;;6275800;22;20018;-74
2024/01/15 13:15:16;;;;;;;;;;;13.70;64.00;;;;;;6276470;22;19907;-74
2024/01/15 13:17:42;;;;;;;;;;;13.70;63.80;;;;;;6275831;22;19965;-74
2024/01/15 13:20:08;;;;;;;;;;;13.70;64.30;;;;;;6276444;22;19904;-75
2024/01/15 13:22:34;;;;;;;;;;;13.60;63.90;;;;;;6276482;22;19974;-74
2024/01/15 13:24:59;;;;;;;;;;;13.60;64.80;;;;;;6275855;22;19934;-74
2024/01/15 13:27:25;;;;;;;;;;;13.40;64.80;;;;;;6275766;22;19956;-75
2024/01/15 13:29:51;;;;;;;;;;;13.50;65.30;;;;;;6275831;22;19961;-74
2024/01/15 13:32:20;;;;;;;;;;;13.40;65.70;;;;;;6275727;22;19982;-74
2024/01/15 13:34:46;;;;;;;;;;;13.30;66.10;;;;;;6275739;22;19904;-74
2024/01/15 13:37:11;;;;;;;;;;;13.30;66.20;;;;;;6275692;22;20004;-74
2024/01/15 13:39:37;;;;;;;;;;;13.30;66.20;;;;;;6275705;22;20238;-74
2024/01/15 13:42:02;;;;;;;;;;;13.30;66.10;;;;;;6275795;22;19910;-74
2024/01/15 13:44:28;;;;;;;;;;;13.30;65.00;;;;;;6275821;22;19903;-73
2024/01/15 13:46:53;;;;;;;;;;;13.20;66.20;;;;;;6275641;22;20269;-74
2024/01/15 13:49:19;;;;;;;;;;;13.20;66.20;;;;;;6276316;22;19911;-74
2024/01/15 13:51:44;;;;;;;;;;;13.20;66.40;;;;;;6275579;22;19904;-74
2024/01/15 13:54:10;;;;;;;;;;;13.20;66.60;;;;;;6275441;22;19915;-74
2024/01/15 13:56:36;;;;;;;;;;;13.20;66.70;;;;;;6275844;22;19935;-74
2024/01/15 13:59:01;;;;;;;;;;;13.20;66.60;;;;;;6277914;22;19904;-75
2024/01/15 14:01:27;;;;;;;;;;;13.20;66.60;;;;;;6278163;22;19976;-75
2024/01/15 14:03:53;;;;;;;;;;;13.20;67.00;;;;;;6277438;22;19922;-73
2024/01/15 14:06:19;;;;;;;;;;;13.10;67.10;;;;;;6277594;22;19911;-74
2024/01/15 14:08:44;;;;;;;;;;;13.10;66.90;;;;;;6250584;22;19908;-75
2024/01/15 14:11:10;;;;;;;;;;;13.30;67.30;;;;;;6277569;22;19975;-76
2024/01/15 14:13:35;;;;;;;;;;;13.00;67.30;;;;;;6277382;22;19919;-76
2024/01/15 14:16:01;;;;;;;;;;;13.00;67.20;;;;;;6278117;22;19907;-76